createdAt,value
2019-01-27T00:01:14.552Z,8.12
2019-01-27T00:03:44.566Z,8.06
2019-01-27T00:06:13.865Z,8.20
2019-01-27T00:08:43.794Z,8.23
2019-01-27T00:11:15.904Z,8.13
2019-01-27T00:13:45.756Z,8.12
2019-01-27T00:16:15.042Z,8.15
2019-01-27T00:18:44.403Z,8.08
2019-01-27T00:21:13.458Z,8.22
2019-01-27T00:23:43.087Z,8.28
2019-01-27T00:26:12.712Z,8.23
2019-01-27T00:28:42.218Z,8.11
2019-01-27T00:31:11.959Z,8.17
2019-01-27T00:33:41.366Z,8.18
2019-01-27T00:36:11.139Z,8.19
2019-01-27T00:38:40.372Z,8.12
2019-01-27T00:41:09.699Z,8.08
2019-01-27T00:43:39.899Z,8.24
2019-01-27T00:46:10.062Z,8.22
2019-01-27T00:48:39.585Z,8.14
2019-01-27T00:51:08.726Z,8.25
2019-01-27T00:53:38.512Z,8.29
2019-01-27T00:56:08.150Z,8.25
2019-01-27T00:58:37.845Z,8.18
2019-01-27T01:01:07.737Z,8.13
2019-01-27T01:03:37.675Z,8.12
2019-01-27T01:06:07.738Z,8.18
2019-01-27T01:08:37.151Z,8.15
2019-01-27T01:11:06.798Z,8.31
2019-01-27T01:13:36.408Z,8.25
2019-01-27T01:16:07.094Z,8.30
2019-01-27T01:18:37.332Z,8.19
2019-01-27T01:21:07.141Z,8.16
2019-01-27T01:23:37.173Z,8.18
2019-01-27T01:26:06.984Z,8.06
2019-01-27T01:28:36.648Z,8.08
2019-01-27T01:31:07.025Z,8.07
2019-01-27T01:33:36.189Z,8.18
2019-01-27T01:36:05.772Z,7.98
2019-01-27T01:38:34.818Z,8.01
2019-01-27T01:41:05.038Z,8.01
2019-01-27T01:43:35.297Z,7.92
2019-01-27T01:46:05.772Z,7.81
2019-01-27T01:48:34.991Z,7.87
2019-01-27T01:51:04.189Z,7.86
2019-01-27T01:53:33.700Z,7.88
2019-01-27T01:56:03.374Z,8.01
2019-01-27T01:58:33.175Z,7.81
2019-01-27T02:01:03.049Z,7.77
2019-01-27T02:03:32.302Z,7.86
2019-01-27T02:06:01.719Z,7.81
2019-01-27T02:08:32.049Z,7.88
2019-01-27T02:11:01.493Z,7.75
2019-01-27T02:13:31.262Z,7.72
2019-01-27T02:16:10.803Z,7.88
2019-01-27T02:18:40.985Z,7.79
2019-01-27T02:21:11.635Z,7.78
2019-01-27T02:23:40.739Z,7.78
2019-01-27T02:26:11.551Z,7.74
2019-01-27T02:28:43.973Z,7.82
2019-01-27T02:31:13.751Z,7.65
2019-01-27T02:33:43.345Z,7.81
2019-01-27T02:36:14.081Z,7.83
2019-01-27T02:38:43.331Z,7.84
2019-01-27T02:41:12.513Z,7.82
2019-01-27T02:43:42.098Z,7.80
2019-01-27T02:46:11.713Z,7.80
2019-01-27T02:48:41.098Z,7.88
2019-01-27T02:51:10.177Z,7.72
2019-01-27T02:53:39.470Z,7.81
2019-01-27T02:56:09.252Z,7.80
2019-01-27T02:58:38.436Z,7.85
2019-01-27T03:01:08.449Z,7.73
2019-01-27T03:03:37.707Z,7.63
2019-01-27T03:06:29.943Z,7.67
2019-01-27T03:09:13.767Z,7.79
2019-01-27T03:11:52.753Z,7.68
2019-01-27T03:14:22.987Z,7.69
2019-01-27T03:16:53.767Z,7.76
2019-01-27T03:19:23.491Z,7.65
2019-01-27T03:21:52.664Z,7.48
2019-01-27T03:24:22.123Z,7.41
2019-01-27T03:26:52.437Z,7.55
2019-01-27T03:29:21.632Z,7.56
2019-01-27T03:31:51.233Z,7.46
2019-01-27T03:34:20.635Z,7.70
2019-01-27T03:36:49.916Z,7.78
2019-01-27T03:39:19.323Z,7.71
2019-01-27T03:41:48.799Z,7.68
2019-01-27T03:44:18.033Z,7.58
2019-01-27T03:46:47.965Z,7.48
2019-01-27T03:49:17.487Z,7.49
2019-01-27T03:51:47.355Z,7.55
2019-01-27T03:54:17.302Z,7.53
2019-01-27T03:56:46.927Z,7.61
2019-01-27T03:59:16.662Z,7.62
2019-01-27T04:01:46.420Z,7.52
2019-01-27T04:04:15.863Z,7.72
2019-01-27T04:06:45.604Z,7.49
2019-01-27T04:09:15.739Z,7.44
2019-01-27T04:11:45.173Z,7.50
2019-01-27T04:14:14.535Z,7.52
2019-01-27T04:16:44.434Z,7.54
2019-01-27T04:19:14.641Z,7.64
2019-01-27T04:21:45.258Z,7.57
2019-01-27T04:24:14.731Z,7.60
2019-01-27T04:26:44.126Z,7.71
2019-01-27T04:29:13.683Z,7.68
2019-01-27T04:31:43.145Z,7.50
2019-01-27T04:34:12.653Z,7.61
2019-01-27T04:36:41.945Z,7.69
2019-01-27T04:39:32.410Z,7.63
2019-01-27T04:42:01.663Z,7.68
2019-01-27T04:44:31.528Z,7.64
2019-01-27T04:47:03.125Z,7.72
2019-01-27T04:49:32.382Z,7.83
2019-01-27T04:52:01.728Z,7.78
2019-01-27T04:54:30.879Z,7.79
2019-01-27T04:57:00.322Z,7.67
2019-01-27T04:59:29.805Z,7.68
2019-01-27T05:01:59.603Z,7.55
2019-01-27T05:04:36.885Z,7.66
2019-01-27T05:07:06.299Z,7.59
2019-01-27T05:09:35.595Z,7.65
2019-01-27T05:12:05.418Z,7.66
2019-01-27T05:14:34.636Z,7.71
2019-01-27T05:17:03.785Z,7.75
2019-01-27T05:19:34.288Z,7.74
2019-01-27T05:22:03.621Z,7.67
2019-01-27T05:24:33.613Z,7.69
2019-01-27T05:27:03.431Z,7.63
2019-01-27T05:29:32.972Z,7.59
2019-01-27T05:32:02.416Z,7.56
2019-01-27T05:34:31.872Z,7.61
2019-01-27T05:37:01.025Z,7.54
2019-01-27T05:39:30.807Z,7.63
2019-01-27T05:42:00.021Z,7.63
2019-01-27T05:44:29.807Z,7.58
2019-01-27T05:46:59.281Z,7.57
2019-01-27T05:49:28.671Z,7.57
2019-01-27T05:51:58.309Z,7.36
2019-01-27T05:54:27.430Z,7.29
2019-01-27T05:56:56.876Z,7.40
2019-01-27T05:59:29.217Z,7.35
2019-01-27T06:01:58.755Z,7.29
2019-01-27T06:04:28.000Z,7.39
2019-01-27T06:06:57.345Z,7.26
2019-01-27T06:09:26.555Z,7.25
2019-01-27T06:11:56.647Z,7.23
2019-01-27T06:14:25.924Z,7.27
2019-01-27T06:16:56.000Z,7.14
2019-01-27T06:19:25.702Z,7.16
2019-01-27T06:21:55.083Z,7.07
2019-01-27T06:24:25.271Z,7.13
2019-01-27T06:26:54.892Z,7.26
2019-01-27T06:29:24.443Z,7.16
2019-01-27T06:31:55.029Z,7.29
2019-01-27T06:34:24.823Z,7.17
2019-01-27T06:36:54.037Z,7.09
2019-01-27T06:39:23.539Z,7.04
2019-01-27T06:41:52.851Z,7.15
2019-01-27T06:44:22.771Z,7.05
2019-01-27T06:46:52.663Z,7.17
2019-01-27T06:49:22.421Z,7.16
2019-01-27T06:51:51.919Z,7.07
2019-01-27T06:54:21.617Z,7.07
2019-01-27T06:56:51.547Z,7.07
2019-01-27T06:59:43.087Z,6.92
2019-01-27T07:02:31.312Z,7.04
2019-01-27T07:05:16.143Z,6.97
2019-01-27T07:08:07.638Z,6.88
2019-01-27T07:10:52.037Z,6.85
2019-01-27T07:13:40.095Z,6.80
2019-01-27T07:16:29.128Z,6.62
2019-01-27T07:19:06.875Z,6.64
2019-01-27T07:21:49.299Z,6.79
2019-01-27T07:24:26.601Z,6.63
2019-01-27T07:27:13.446Z,6.70
2019-01-27T07:30:01.907Z,6.73
2019-01-27T07:32:50.361Z,6.76
2019-01-27T07:35:37.769Z,6.77
2019-01-27T07:38:12.335Z,6.85
2019-01-27T07:40:47.104Z,6.79
2019-01-27T07:43:29.244Z,6.86
2019-01-27T07:46:23.827Z,6.81
2019-01-27T07:49:12.143Z,6.66
2019-01-27T07:52:18.407Z,6.82
2019-01-27T07:55:06.557Z,6.78
2019-01-27T07:57:56.549Z,6.75
2019-01-27T08:00:32.005Z,6.75
2019-01-27T08:03:14.353Z,6.72
2019-01-27T08:06:11.882Z,6.64
2019-01-27T08:08:51.273Z,6.75
2019-01-27T08:11:43.286Z,6.89
2019-01-27T08:14:39.955Z,6.97
2019-01-27T08:17:34.251Z,6.96
2019-01-27T08:20:18.665Z,6.86
2019-01-27T08:23:13.815Z,6.84
2019-01-27T08:26:08.773Z,6.98
2019-01-27T08:28:48.492Z,6.98
2019-01-27T08:31:42.951Z,6.92
2019-01-27T08:34:30.079Z,6.93
2019-01-27T08:37:28.207Z,6.96
2019-01-27T08:40:15.885Z,6.88
2019-01-27T08:42:55.348Z,6.87
2019-01-27T08:45:43.477Z,6.85
2019-01-27T08:48:16.056Z,6.87
2019-01-27T08:50:49.039Z,6.75
2019-01-27T08:53:19.223Z,6.82
2019-01-27T08:55:48.871Z,6.68
2019-01-27T08:58:18.361Z,6.74
2019-01-27T09:00:56.771Z,6.65
2019-01-27T09:03:37.557Z,6.53
2019-01-27T09:06:24.020Z,6.70
2019-01-27T09:09:18.238Z,6.52
2019-01-27T09:12:12.855Z,6.43
2019-01-27T09:14:59.160Z,6.55
2019-01-27T09:17:49.281Z,6.59
2019-01-27T09:20:55.918Z,6.63
2019-01-27T09:23:44.097Z,6.57
2019-01-27T09:26:22.840Z,6.57
2019-01-27T09:29:10.323Z,6.77
2019-01-27T09:32:16.968Z,6.56
2019-01-27T09:35:04.399Z,6.72
2019-01-27T09:38:01.401Z,6.74
2019-01-27T09:41:00.848Z,6.75
2019-01-27T09:43:40.756Z,6.80
2019-01-27T09:46:41.566Z,6.75
2019-01-27T09:49:29.975Z,6.71
2019-01-27T09:52:11.931Z,6.85
2019-01-27T09:55:05.941Z,6.71
2019-01-27T09:57:46.802Z,6.81
2019-01-27T10:00:27.661Z,6.72
2019-01-27T10:03:12.407Z,6.93
2019-01-27T10:06:01.411Z,7.10
2019-01-27T10:09:08.265Z,7.09
2019-01-27T10:11:59.100Z,6.99
2019-01-27T10:15:00.042Z,7.05
2019-01-27T10:17:44.689Z,7.10
2019-01-27T10:20:42.646Z,7.11
2019-01-27T10:23:33.965Z,7.10
2019-01-27T10:26:19.454Z,7.06
2019-01-27T10:29:06.487Z,7.06
2019-01-27T10:32:09.721Z,7.00
2019-01-27T10:35:09.980Z,6.90
2019-01-27T10:38:04.211Z,6.89
2019-01-27T10:40:39.833Z,6.84
2019-01-27T10:43:27.123Z,6.91
2019-01-27T10:46:05.655Z,6.93
2019-01-27T10:48:52.667Z,6.94
2019-01-27T10:51:39.511Z,6.84
2019-01-27T10:54:18.223Z,6.89
2019-01-27T10:56:59.737Z,6.88
2019-01-27T10:59:47.901Z,6.92
2019-01-27T11:02:42.274Z,6.71
2019-01-27T11:05:31.474Z,6.65
2019-01-27T11:08:18.189Z,6.61
2019-01-27T11:11:21.595Z,6.54
2019-01-27T11:14:08.540Z,6.42
2019-01-27T11:16:55.179Z,6.36
2019-01-27T11:19:37.733Z,6.34
2019-01-27T11:22:25.795Z,6.35
2019-01-27T11:25:20.003Z,6.36
2019-01-27T11:28:20.322Z,6.38
2019-01-27T11:30:59.098Z,6.48
2019-01-27T11:33:47.207Z,6.46
2019-01-27T11:36:53.591Z,6.46
2019-01-27T11:39:44.929Z,6.37
2019-01-27T11:42:41.801Z,6.40
2019-01-27T11:45:30.731Z,6.41
2019-01-27T11:48:22.887Z,6.32
2019-01-27T11:50:58.745Z,6.37
2019-01-27T11:53:27.759Z,6.29
2019-01-27T11:55:57.187Z,6.26
2019-01-27T11:58:26.225Z,6.17
2019-01-27T12:01:00.503Z,6.04
2019-01-27T12:03:29.507Z,5.94
2019-01-27T12:05:58.959Z,5.79
2019-01-27T12:08:28.115Z,5.89
2019-01-27T12:10:57.638Z,5.81
2019-01-27T12:13:27.130Z,5.72
2019-01-27T12:15:57.668Z,5.67
2019-01-27T12:18:26.694Z,5.78
2019-01-27T12:20:58.584Z,5.76
2019-01-27T12:23:28.069Z,5.68
2019-01-27T12:25:57.117Z,5.77
2019-01-27T12:28:26.201Z,5.73
2019-01-27T12:30:55.430Z,5.63
2019-01-27T12:33:27.818Z,5.61
2019-01-27T12:35:57.019Z,5.64
2019-01-27T12:38:26.492Z,5.75
2019-01-27T12:40:55.501Z,5.65
2019-01-27T12:43:24.606Z,5.67
2019-01-27T12:45:53.615Z,5.81
2019-01-27T12:48:24.719Z,5.79
2019-01-27T12:50:53.768Z,5.67
2019-01-27T12:53:22.894Z,5.61
2019-01-27T12:55:51.983Z,5.63
2019-01-27T12:58:21.018Z,5.76
2019-01-27T13:01:00.053Z,5.91
2019-01-27T13:03:29.072Z,6.08
2019-01-27T13:05:58.149Z,6.25
2019-01-27T13:08:27.225Z,6.40
2019-01-27T13:10:56.606Z,6.54
2019-01-27T13:13:26.103Z,6.36
2019-01-27T13:15:55.418Z,6.47
2019-01-27T13:18:24.481Z,6.46
2019-01-27T13:20:54.107Z,6.44
2019-01-27T13:23:24.529Z,6.35
2019-01-27T13:25:53.600Z,6.35
2019-01-27T13:28:23.160Z,6.15
2019-01-27T13:30:54.622Z,6.36
2019-01-27T13:33:26.877Z,6.20
2019-01-27T13:35:55.910Z,6.17
2019-01-27T13:38:25.277Z,6.15
2019-01-27T13:40:55.091Z,6.16
2019-01-27T13:43:25.413Z,6.15
2019-01-27T13:45:54.468Z,6.19
2019-01-27T13:48:23.555Z,6.20
2019-01-27T13:50:52.555Z,6.25
2019-01-27T13:53:21.947Z,6.09
2019-01-27T13:55:50.983Z,5.99
2019-01-27T13:58:20.169Z,5.99
2019-01-27T14:00:49.752Z,6.01
2019-01-27T14:03:18.854Z,6.00
2019-01-27T14:05:48.019Z,6.00
2019-01-27T14:08:17.382Z,5.88
2019-01-27T14:10:46.508Z,6.00
2019-01-27T14:13:15.571Z,5.90
2019-01-27T14:15:44.924Z,5.90
2019-01-27T14:18:13.966Z,5.88
2019-01-27T14:20:42.968Z,5.87
2019-01-27T14:23:12.030Z,6.00
2019-01-27T14:25:42.176Z,5.97
2019-01-27T14:28:11.218Z,5.96
2019-01-27T14:30:42.548Z,5.94
2019-01-27T14:33:11.641Z,6.02
2019-01-27T14:35:40.637Z,6.09
2019-01-27T14:38:09.675Z,5.97
2019-01-27T14:40:38.741Z,6.01
2019-01-27T14:43:07.792Z,6.14
2019-01-27T14:45:36.798Z,6.17
2019-01-27T14:48:06.345Z,6.17
2019-01-27T14:50:41.196Z,6.06
2019-01-27T14:53:10.836Z,5.93
2019-01-27T14:55:40.203Z,6.04
2019-01-27T14:58:09.282Z,6.04
2019-01-27T15:00:40.192Z,5.96
2019-01-27T15:03:10.222Z,6.07
2019-01-27T15:05:39.364Z,6.17
2019-01-27T15:08:08.650Z,6.09
2019-01-27T15:10:38.057Z,6.16
2019-01-27T15:13:09.021Z,6.19
2019-01-27T15:15:38.519Z,6.21
2019-01-27T15:18:07.949Z,6.06
2019-01-27T15:20:40.265Z,6.02
2019-01-27T15:23:09.608Z,5.91
2019-01-27T15:25:38.755Z,5.95
2019-01-27T15:28:08.423Z,6.00
2019-01-27T15:30:37.733Z,6.06
2019-01-27T15:33:06.995Z,5.94
2019-01-27T15:35:36.396Z,5.83
2019-01-27T15:38:06.150Z,5.78
2019-01-27T15:40:35.440Z,5.69
2019-01-27T15:43:05.008Z,5.68
2019-01-27T15:45:34.468Z,5.63
2019-01-27T15:48:03.609Z,5.61
2019-01-27T15:50:33.680Z,5.62
2019-01-27T15:53:05.479Z,5.70
2019-01-27T15:55:34.774Z,5.63
2019-01-27T15:58:03.883Z,5.72
2019-01-27T16:00:34.070Z,5.69
2019-01-27T16:03:03.235Z,5.61
2019-01-27T16:05:32.354Z,5.51
2019-01-27T16:08:01.528Z,5.15
2019-01-27T16:10:30.674Z,5.00
2019-01-27T16:12:59.714Z,4.99
2019-01-27T16:15:30.582Z,4.99
2019-01-27T16:18:00.571Z,4.93
2019-01-27T16:20:29.867Z,4.91
2019-01-27T16:23:26.686Z,5.10
2019-01-27T16:25:57.047Z,5.09
2019-01-27T16:28:30.278Z,5.09
2019-01-27T16:31:30.161Z,5.12
2019-01-27T16:34:17.458Z,5.18
2019-01-27T16:36:48.040Z,4.91
2019-01-27T16:39:17.069Z,4.86
2019-01-27T16:41:46.186Z,4.83
2019-01-27T16:44:15.494Z,4.77
2019-01-27T16:46:44.527Z,4.78
2019-01-27T16:49:14.594Z,4.68
2019-01-27T16:51:49.003Z,4.79
2019-01-27T16:54:14.854Z,4.73
2019-01-27T16:56:44.161Z,4.81
2019-01-27T16:59:13.743Z,4.75
2019-01-27T17:01:43.130Z,4.82
2019-01-27T17:04:12.179Z,4.83
2019-01-27T17:06:41.234Z,4.86
2019-01-27T17:09:11.005Z,4.88
2019-01-27T17:11:40.386Z,4.99
2019-01-27T17:14:09.440Z,5.12
2019-01-27T17:16:38.988Z,4.96
2019-01-27T17:19:08.012Z,4.90
2019-01-27T17:21:37.334Z,4.83
2019-01-27T17:24:07.048Z,4.84
2019-01-27T17:26:37.021Z,4.79
2019-01-27T17:29:06.250Z,4.79
2019-01-27T17:31:35.429Z,4.76
2019-01-27T17:34:04.750Z,4.95
2019-01-27T17:36:34.311Z,5.16
2019-01-27T17:39:09.572Z,4.99
2019-01-27T17:41:38.138Z,4.85
2019-01-27T17:44:07.602Z,4.89
2019-01-27T17:46:36.631Z,4.94
2019-01-27T17:49:06.250Z,4.85
2019-01-27T17:51:35.504Z,5.00
2019-01-27T17:54:08.212Z,4.96
2019-01-27T17:56:37.770Z,5.10
2019-01-27T17:59:17.626Z,5.09
2019-01-27T18:02:12.113Z,5.11
2019-01-27T18:04:48.942Z,4.88
2019-01-27T18:07:27.869Z,4.69
2019-01-27T18:10:31.405Z,4.60
2019-01-27T18:13:07.646Z,4.48
2019-01-27T18:15:37.321Z,4.60
2019-01-27T18:18:06.650Z,4.73
2019-01-27T18:20:35.953Z,4.70
2019-01-27T18:23:05.328Z,4.70
2019-01-27T18:25:34.457Z,4.74
2019-01-27T18:28:03.638Z,4.54
2019-01-27T18:30:32.690Z,4.40
2019-01-27T18:33:01.755Z,4.27
2019-01-27T18:35:31.034Z,4.31
2019-01-27T18:38:00.368Z,4.30
2019-01-27T18:40:30.939Z,4.01
2019-01-27T18:43:00.182Z,4.08
2019-01-27T18:45:29.451Z,4.08
2019-01-27T18:47:58.456Z,4.06
2019-01-27T18:50:27.562Z,4.24
2019-01-27T18:53:05.701Z,4.20
2019-01-27T18:55:42.471Z,4.26
2019-01-27T18:58:34.264Z,4.23
2019-01-27T19:01:27.949Z,4.23
2019-01-27T19:04:11.585Z,4.31
2019-01-27T19:06:57.076Z,4.28
2019-01-27T19:09:53.949Z,4.33
2019-01-27T19:12:54.339Z,4.28
2019-01-27T19:15:45.014Z,4.32
2019-01-27T19:18:29.134Z,4.39
2019-01-27T19:21:17.748Z,4.54
2019-01-27T19:24:02.991Z,4.48
2019-01-27T19:26:43.177Z,4.53
2019-01-27T19:29:34.246Z,4.61
2019-01-27T19:32:08.721Z,4.65
2019-01-27T19:34:57.034Z,4.80
2019-01-27T19:37:59.996Z,4.81
2019-01-27T19:40:42.309Z,4.81
2019-01-27T19:43:30.596Z,4.62
2019-01-27T19:46:08.837Z,4.71
2019-01-27T19:48:50.087Z,4.76
2019-01-27T19:51:42.377Z,4.90
2019-01-27T19:54:37.120Z,4.81
2019-01-27T19:57:27.841Z,4.84
2019-01-27T20:00:16.288Z,4.96
2019-01-27T20:02:55.165Z,4.88
2019-01-27T20:05:58.906Z,4.89
2019-01-27T20:08:41.478Z,4.93
2019-01-27T20:11:29.558Z,4.91
2019-01-27T20:14:07.060Z,4.96
2019-01-27T20:17:04.275Z,4.93
2019-01-27T20:19:50.323Z,4.86
2019-01-27T20:22:41.115Z,4.88
2019-01-27T20:25:22.337Z,4.86
2019-01-27T20:28:19.186Z,4.80
2019-01-27T20:31:03.046Z,4.89
2019-01-27T20:33:42.814Z,4.99
2019-01-27T20:36:30.933Z,4.94
2019-01-27T20:39:18.993Z,4.90
2019-01-27T20:41:58.117Z,4.84
2019-01-27T20:44:38.548Z,4.87
2019-01-27T20:47:29.588Z,4.99
2019-01-27T20:50:30.283Z,4.89
2019-01-27T20:53:27.238Z,4.94
2019-01-27T20:56:21.122Z,4.90
2019-01-27T20:59:15.304Z,4.92
2019-01-27T21:02:16.075Z,4.91
2019-01-27T21:05:04.415Z,4.88
2019-01-27T21:07:51.915Z,4.88
2019-01-27T21:10:45.941Z,5.05
2019-01-27T21:13:36.698Z,5.02
2019-01-27T21:16:43.473Z,5.03
2019-01-27T21:19:23.947Z,5.02
2019-01-27T21:21:53.077Z,4.98
2019-01-27T21:24:22.107Z,5.05
2019-01-27T21:26:51.227Z,4.99
2019-01-27T21:29:20.312Z,4.94
2019-01-27T21:31:49.434Z,4.97
2019-01-27T21:34:18.611Z,4.89
2019-01-27T21:36:47.650Z,4.86
2019-01-27T21:39:16.685Z,4.82
2019-01-27T21:41:45.757Z,4.71
2019-01-27T21:44:14.773Z,4.80
2019-01-27T21:46:43.805Z,4.77
2019-01-27T21:49:13.142Z,4.62
2019-01-27T21:51:42.497Z,4.64
2019-01-27T21:54:11.619Z,4.61
2019-01-27T21:56:41.080Z,4.62
2019-01-27T21:59:10.509Z,4.61
2019-01-27T22:01:39.945Z,4.65
2019-01-27T22:04:08.981Z,4.63
2019-01-27T22:06:38.045Z,4.70
2019-01-27T22:09:09.969Z,4.65
2019-01-27T22:11:39.107Z,4.61
2019-01-27T22:14:08.167Z,4.56
2019-01-27T22:16:37.183Z,4.62
2019-01-27T22:19:06.238Z,4.55
2019-01-27T22:21:35.221Z,4.68
2019-01-27T22:24:04.936Z,4.67
2019-01-27T22:26:34.258Z,4.58
2019-01-27T22:29:07.057Z,4.70
2019-01-27T22:31:37.162Z,4.70
2019-01-27T22:34:06.262Z,4.73
2019-01-27T22:36:35.655Z,4.68
2019-01-27T22:39:07.905Z,4.72
2019-01-27T22:41:37.327Z,4.77
2019-01-27T22:44:06.511Z,4.84
2019-01-27T22:46:35.537Z,4.82
2019-01-27T22:49:04.834Z,4.73
2019-01-27T22:51:33.908Z,4.89
2019-01-27T22:54:02.972Z,4.94
2019-01-27T22:56:32.102Z,5.03
2019-01-27T22:59:01.166Z,5.05
2019-01-27T23:01:30.722Z,5.02
2019-01-27T23:03:59.753Z,5.04
2019-01-27T23:06:28.784Z,5.11
2019-01-27T23:08:57.859Z,5.10
2019-01-27T23:11:26.892Z,5.18
2019-01-27T23:13:56.342Z,5.10
2019-01-27T23:16:25.381Z,5.11
2019-01-27T23:18:54.753Z,5.15
2019-01-27T23:21:23.788Z,5.10
2019-01-27T23:23:52.786Z,5.08
2019-01-27T23:26:22.265Z,5.13
2019-01-27T23:28:52.215Z,5.09
2019-01-27T23:31:21.273Z,5.09
2019-01-27T23:33:50.610Z,5.03
2019-01-27T23:36:19.646Z,5.10
2019-01-27T23:38:48.642Z,5.02
2019-01-27T23:41:18.411Z,4.99
2019-01-27T23:43:47.783Z,4.97
2019-01-27T23:46:16.797Z,4.96
2019-01-27T23:48:46.114Z,4.89
2019-01-27T23:51:15.232Z,4.89
2019-01-27T23:53:44.309Z,4.83
2019-01-27T23:56:13.750Z,4.88
2019-01-27T23:58:42.725Z,4.91
